Time;durP1;ratioP1;P1;durP2;ratioP2;P2;SDS_P1;SDS_P2;PMS_P1;PMS_P2;Temp;Humidity;BMP_temperature;BMP_pressure;BME280_temperature;BME280_humidity;BME280_pressure;Samples;Min_cycle;Max_cycle;Signal;HPM_P1;HPM_P2
2024/03/09 00:00:17;;;;;;;21.98;9.32;;;8.30;91.70;;;;;;5071533;28;20432;-79
2024/03/09 00:02:47;;;;;;;18.70;9.52;;;8.30;92.10;;;;;;5081122;28;20028;-79
2024/03/09 00:05:14;;;;;;;22.35;9.70;;;8.30;91.80;;;;;;5081896;28;20043;-79
2024/03/09 00:07:40;;;;;;;21.05;9.27;;;8.30;92.00;;;;;;5069710;28;20075;-79
2024/03/09 00:10:06;;;;;;;18.10;7.45;;;8.30;91.90;;;;;;5088225;28;20055;-80
2024/03/09 00:12:34;;;;;;;28.60;12.88;;;8.30;92.00;;;;;;5083713;28;20041;-79
2024/03/09 00:15:04;;;;;;;19.67;9.20;;;8.20;91.90;;;;;;5069009;28;20029;-79
2024/03/09 00:17:30;;;;;;;27.27;11.98;;;8.20;92.00;;;;;;5067771;28;20039;-79
2024/03/09 00:19:59;;;;;;;20.58;9.52;;;8.30;92.10;;;;;;5069549;28;20090;-80
2024/03/09 00:22:25;;;;;;;25.15;12.77;;;8.30;92.00;;;;;;5081092;28;20472;-80
2024/03/09 00:24:52;;;;;;;26.13;11.02;;;8.30;91.80;;;;;;5080737;28;20064;-80
2024/03/09 00:27:23;;;;;;;22.58;9.90;;;8.30;92.10;;;;;;5080346;28;20040;-80
2024/03/09 00:29:48;;;;;;;21.60;11.23;;;8.30;91.90;;;;;;5076914;28;20387;-80
2024/03/09 00:32:14;;;;;;;23.13;10.15;;;8.30;92.00;;;;;;5079926;28;20035;-80
2024/03/09 00:34:40;;;;;;;20.27;8.48;;;8.20;92.00;;;;;;5077837;28;20032;-79
2024/03/09 00:37:07;;;;;;;21.20;9.55;;;8.20;91.90;;;;;;5069380;28;20067;-80
2024/03/09 00:39:33;;;;;;;20.70;10.30;;;8.20;92.00;;;;;;5081020;28;20089;-80
2024/03/09 00:41:59;;;;;;;11.70;5.70;;;8.10;91.90;;;;;;5070489;28;20151;-79
2024/03/09 00:44:25;;;;;;;25.30;8.43;;;8.10;92.10;;;;;;5069121;28;20454;-80
2024/03/09 00:46:50;;;;;;;29.85;10.60;;;8.10;91.80;;;;;;5074901;28;20540;-80
2024/03/09 00:49:16;;;;;;;19.95;8.73;;;8.10;92.10;;;;;;5076136;28;20028;-80
2024/03/09 00:51:42;;;;;;;14.57;7.07;;;8.00;92.00;;;;;;5072864;28;20032;-79
2024/03/09 00:54:07;;;;;;;20.73;8.70;;;8.10;92.10;;;;;;5089082;28;20032;-80
2024/03/09 00:56:33;;;;;;;21.15;10.32;;;8.10;92.30;;;;;;5084294;28;20060;-80
2024/03/09 00:59:00;;;;;;;13.20;7.07;;;8.10;92.30;;;;;;5066676;28;20126;-79
2024/03/09 01:01:28;;;;;;;21.20;9.90;;;8.00;91.60;;;;;;5070933;28;20476;-79
2024/03/09 01:03:55;;;;;;;30.20;11.80;;;7.90;92.00;;;;;;5086213;28;20032;-79
2024/03/09 01:06:21;;;;;;;20.88;8.80;;;7.90;92.00;;;;;;5072178;28;20036;-79
2024/03/09 01:08:49;;;;;;;23.17;10.05;;;8.00;92.20;;;;;;5076515;28;20035;-79
2024/03/09 01:11:17;;;;;;;17.35;7.78;;;8.00;92.20;;;;;;5085505;28;20480;-79
2024/03/09 01:13:45;;;;;;;29.08;12.23;;;8.00;91.90;;;;;;5085633;28;20032;-80
2024/03/09 01:16:11;;;;;;;25.08;10.68;;;8.00;92.10;;;;;;5082292;28;20120;-80
2024/03/09 01:18:37;;;;;;;21.23;9.48;;;8.00;92.20;;;;;;5087303;28;20024;-79
2024/03/09 01:21:03;;;;;;;24.13;11.55;;;8.00;92.10;;;;;;5086527;28;20396;-80
2024/03/09 01:23:30;;;;;;;17.80;8.68;;;8.10;92.30;;;;;;5084158;28;20077;-79
2024/03/09 01:25:56;;;;;;;27.13;12.40;;;8.00;91.90;;;;;;5075334;28;20032;-80
2024/03/09 01:28:22;;;;;;;27.90;10.07;;;8.00;92.20;;;;;;5073138;28;20550;-80
2024/03/09 01:30:48;;;;;;;22.13;11.38;;;8.00;92.30;;;;;;5073163;28;20033;-79
2024/03/09 01:33:14;;;;;;;21.55;10.85;;;8.00;92.00;;;;;;5076811;28;20036;-79
2024/03/09 01:35:39;;;;;;;26.05;11.60;;;8.00;92.00;;;;;;5080632;28;20032;-79
2024/03/09 01:38:05;;;;;;;16.45;6.50;;;7.90;92.20;;;;;;5074979;28;20031;-80
2024/03/09 01:40:31;;;;;;;16.33;9.50;;;8.00;92.20;;;;;;5075991;28;20029;-79
2024/03/09 01:42:57;;;;;;;19.08;7.80;;;7.90;92.10;;;;;;5081557;28;20502;-80
2024/03/09 01:45:23;;;;;;;22.75;11.00;;;7.90;91.90;;;;;;5087536;28;20035;-79
2024/03/09 01:47:51;;;;;;;20.05;10.20;;;7.80;92.20;;;;;;5072264;28;20035;-78
2024/03/09 01:50:19;;;;;;;20.85;9.40;;;7.80;92.30;;;;;;5073157;28;20478;-79
2024/03/09 01:52:49;;;;;;;23.35;11.15;;;7.80;92.20;;;;;;5075409;28;20815;-80
2024/03/09 01:55:16;;;;;;;23.60;8.95;;;7.80;92.40;;;;;;5086910;28;20342;-80
2024/03/09 01:57:42;;;;;;;26.13;12.20;;;7.90;92.10;;;;;;5082968;28;20032;-80
2024/03/09 02:00:09;;;;;;;22.00;10.20;;;7.80;92.30;;;;;;5071296;28;20133;-79
2024/03/09 02:02:34;;;;;;;25.15;10.90;;;7.80;92.20;;;;;;5087133;28;20032;-80
2024/03/09 02:05:10;;;;;;;18.63;8.85;;;7.80;92.30;;;;;;5083346;28;20408;-79
2024/03/09 02:07:39;;;;;;;23.98;11.75;;;7.80;92.20;;;;;;5076026;28;20016;-79
2024/03/09 02:10:05;;;;;;;8.55;5.03;;;7.70;92.20;;;;;;5087016;28;20032;-79
2024/03/09 02:12:31;;;;;;;30.63;12.43;;;7.70;92.30;;;;;;5076239;28;20081;-80
2024/03/09 02:14:57;;;;;;;24.65;11.32;;;7.70;92.30;;;;;;5091460;28;20024;-79
2024/03/09 02:17:24;;;;;;;24.70;12.85;;;7.70;92.40;;;;;;5075068;28;20024;-79
2024/03/09 02:19:49;;;;;;;22.33;10.63;;;7.70;92.50;;;;;;5080662;28;20484;-79
2024/03/09 02:22:18;;;;;;;15.75;6.72;;;7.80;92.40;;;;;;5073977;28;20031;-79
2024/03/09 02:24:55;;;;;;;19.95;9.73;;;7.80;92.40;;;;;;5079394;28;20124;-79
2024/03/09 02:27:24;;;;;;;26.08;12.93;;;7.70;92.40;;;;;;5080617;28;20110;-79
2024/03/09 02:29:53;;;;;;;23.98;11.13;;;7.70;92.50;;;;;;5075138;28;20411;-79
2024/03/09 02:32:21;;;;;;;25.38;12.05;;;7.70;92.50;;;;;;5078728;28;20130;-79
2024/03/09 02:34:47;;;;;;;26.02;10.98;;;7.70;92.50;;;;;;5077984;28;20028;-79
2024/03/09 02:37:13;;;;;;;24.80;12.38;;;7.70;92.40;;;;;;5085462;28;20034;-80
2024/03/09 02:39:41;;;;;;;23.77;9.95;;;7.70;92.50;;;;;;5090417;28;20032;-79
2024/03/09 02:42:08;;;;;;;23.08;11.48;;;7.70;92.50;;;;;;5088624;28;20114;-79
2024/03/09 02:44:34;;;;;;;19.10;9.70;;;7.60;92.50;;;;;;5070558;28;20028;-79
2024/03/09 02:47:00;;;;;;;22.27;11.20;;;7.60;92.40;;;;;;5081438;28;20060;-79
2024/03/09 02:49:26;;;;;;;25.75;9.90;;;7.60;92.50;;;;;;5084746;28;20105;-79
2024/03/09 02:51:53;;;;;;;8.32;4.82;;;7.60;92.70;;;;;;5069643;28;20052;-79
2024/03/09 02:54:19;;;;;;;14.43;6.30;;;7.60;92.40;;;;;;5073737;28;20037;-80
2024/03/09 02:56:49;;;;;;;16.50;8.25;;;7.60;92.50;;;;;;5086232;28;20036;-80
2024/03/09 02:59:16;;;;;;;15.27;7.80;;;7.60;92.60;;;;;;5074195;28;20092;-80
2024/03/09 03:01:42;;;;;;;25.70;12.15;;;7.60;92.50;;;;;;5072108;28;20021;-81
2024/03/09 03:04:11;;;;;;;24.55;12.23;;;7.60;92.70;;;;;;5070795;28;20488;-79
2024/03/09 03:06:38;;;;;;;24.90;11.63;;;7.60;92.60;;;;;;5071544;28;20383;-78
2024/03/09 03:09:11;;;;;;;25.95;10.20;;;7.60;92.60;;;;;;5080976;28;20040;-78
2024/03/09 03:11:37;;;;;;;23.80;8.55;;;7.50;92.70;;;;;;5069904;28;20052;-83
2024/03/09 03:14:03;;;;;;;22.17;9.82;;;7.40;92.60;;;;;;5069000;28;20495;-79
2024/03/09 03:16:35;;;;;;;26.40;11.00;;;7.40;92.80;;;;;;5081422;28;20036;-79
2024/03/09 03:19:06;;;;;;;23.98;11.98;;;7.40;92.60;;;;;;5088661;28;20024;-79
2024/03/09 03:21:36;;;;;;;20.02;9.50;;;7.40;92.70;;;;;;5089603;28;20040;-80
2024/03/09 03:24:02;;;;;;;24.33;10.80;;;7.40;92.80;;;;;;5078279;28;20376;-80
2024/03/09 03:26:31;;;;;;;24.60;11.02;;;7.40;92.70;;;;;;5085117;28;20158;-80
2024/03/09 03:28:57;;;;;;;21.08;10.18;;;7.40;92.80;;;;;;5079931;28;20036;-80
2024/03/09 03:31:24;;;;;;;19.65;9.27;;;7.40;92.90;;;;;;5070801;28;20090;-80
2024/03/09 03:33:50;;;;;;;24.95;12.15;;;7.40;92.70;;;;;;5082562;28;20043;-80
2024/03/09 03:36:18;;;;;;;26.40;12.02;;;7.30;92.60;;;;;;5090460;28;20032;-79
2024/03/09 03:38:49;;;;;;;23.50;9.63;;;7.30;92.70;;;;;;5082292;28;20119;-79
2024/03/09 03:41:16;;;;;;;27.50;10.95;;;7.30;92.90;;;;;;5080932;28;20038;-80
2024/03/09 03:43:45;;;;;;;30.02;12.75;;;7.40;92.90;;;;;;5081967;28;20475;-80
2024/03/09 03:46:13;;;;;;;21.00;10.68;;;7.40;92.80;;;;;;5079230;28;20383;-80
2024/03/09 03:48:40;;;;;;;26.40;12.07;;;7.30;92.70;;;;;;5082672;28;20402;-80
2024/03/09 03:51:12;;;;;;;31.65;14.73;;;7.30;92.70;;;;;;5088677;28;20507;-80
2024/03/09 03:53:39;;;;;;;21.05;10.35;;;7.30;93.00;;;;;;5087883;28;20081;-80
2024/03/09 03:56:07;;;;;;;28.67;13.93;;;7.30;92.80;;;;;;5079866;28;20407;-79
2024/03/09 03:58:37;;;;;;;26.67;12.20;;;7.30;92.90;;;;;;5069874;28;20043;-80
2024/03/09 04:01:03;;;;;;;33.13;15.20;;;7.30;92.90;;;;;;5075075;28;20028;-80
2024/03/09 04:03:31;;;;;;;28.02;12.95;;;7.30;92.90;;;;;;5087027;28;20028;-80
2024/03/09 04:06:02;;;;;;;20.35;5.95;;;7.30;92.90;;;;;;5077564;28;20031;-79
2024/03/09 04:08:28;;;;;;;20.65;9.82;;;7.30;92.70;;;;;;5085170;28;20357;-79
2024/03/09 04:10:54;;;;;;;29.45;11.60;;;7.20;92.90;;;;;;5077313;28;20070;-80
2024/03/09 04:13:21;;;;;;;26.15;12.02;;;7.30;93.10;;;;;;5081631;28;20043;-80
2024/03/09 04:15:47;;;;;;;33.03;13.88;;;7.20;93.00;;;;;;5077950;28;20036;-80
2024/03/09 04:18:13;;;;;;;20.48;9.80;;;7.20;93.10;;;;;;5073691;28;20138;-80
2024/03/09 04:20:43;;;;;;;28.38;14.40;;;7.20;93.00;;;;;;5089329;28;20024;-80
2024/03/09 04:23:18;;;;;;;31.20;14.43;;;7.20;93.20;;;;;;5070352;28;20055;-80
2024/03/09 04:25:50;;;;;;;29.95;15.70;;;7.20;93.10;;;;;;5079553;28;20414;-80
2024/03/09 04:28:20;;;;;;;22.10;11.18;;;7.20;93.20;;;;;;5075518;28;20036;-79
2024/03/09 04:30:48;;;;;;;32.05;13.73;;;7.20;93.10;;;;;;5076171;28;20383;-80
2024/03/09 04:33:15;;;;;;;24.55;12.05;;;7.20;93.00;;;;;;5081470;28;20086;-79
2024/03/09 04:35:42;;;;;;;33.72;13.60;;;7.20;93.10;;;;;;5068887;28;20106;-79
2024/03/09 04:38:08;;;;;;;25.05;12.00;;;7.30;93.00;;;;;;5068804;28;20566;-80
2024/03/09 04:40:37;;;;;;;31.95;14.85;;;7.20;93.10;;;;;;5087437;28;20066;-80
2024/03/09 04:43:04;;;;;;;14.18;8.45;;;7.20;93.10;;;;;;5072613;28;20024;-80
2024/03/09 04:45:32;;;;;;;25.15;10.75;;;7.20;93.00;;;;;;5076128;28;20070;-80
2024/03/09 04:47:59;;;;;;;26.60;12.75;;;7.20;93.00;;;;;;5086291;28;20081;-80
2024/03/09 04:50:25;;;;;;;32.40;15.48;;;7.20;93.10;;;;;;5074719;28;20115;-79
2024/03/09 04:52:51;;;;;;;32.65;14.45;;;7.10;93.10;;;;;;5073296;28;20097;-80
2024/03/09 04:55:17;;;;;;;29.60;12.13;;;7.20;93.10;;;;;;5076166;28;20036;-79
2024/03/09 04:57:44;;;;;;;27.33;13.23;;;7.10;93.10;;;;;;5082847;28;20059;-79
2024/03/09 05:00:14;;;;;;;30.15;13.25;;;7.10;93.20;;;;;;5079538;28;20028;-80
2024/03/09 05:02:47;;;;;;;33.33;13.73;;;7.10;93.20;;;;;;5081734;28;20036;-80
2024/03/09 05:05:14;;;;;;;34.72;16.10;;;7.10;93.20;;;;;;5079230;28;20032;-80
2024/03/09 05:07:46;;;;;;;32.30;16.08;;;7.10;93.10;;;;;;5084862;28;20036;-80
2024/03/09 05:10:15;;;;;;;24.58;12.57;;;7.10;93.40;;;;;;5096220;28;20020;-79
2024/03/09 05:12:41;;;;;;;24.58;12.05;;;7.10;93.30;;;;;;5074807;28;20484;-80
2024/03/09 05:15:08;;;;;;;34.60;14.80;;;7.10;93.20;;;;;;5073820;28;20039;-79
2024/03/09 05:17:33;;;;;;;30.88;15.05;;;7.00;93.30;;;;;;5073390;28;20037;-81
2024/03/09 05:20:10;;;;;;;28.10;13.10;;;7.00;93.40;;;;;;5079716;28;20031;-80
2024/03/09 05:22:37;;;;;;;22.08;11.32;;;7.00;93.20;;;;;;5075310;28;20024;-80
2024/03/09 05:25:04;;;;;;;35.15;16.80;;;7.00;93.30;;;;;;5081384;28;20431;-79
2024/03/09 05:27:30;;;;;;;35.40;14.73;;;7.00;93.30;;;;;;5072921;28;20052;-80
2024/03/09 05:29:56;;;;;;;29.55;14.38;;;7.00;93.20;;;;;;5072474;28;20038;-80
2024/03/09 05:32:23;;;;;;;21.45;7.35;;;7.00;93.30;;;;;;5085011;28;20051;-80
2024/03/09 05:34:48;;;;;;;30.95;15.57;;;7.00;93.60;;;;;;5080623;28;20498;-79
2024/03/09 05:37:14;;;;;;;24.45;10.32;;;7.00;93.40;;;;;;5076481;28;20029;-80
2024/03/09 05:39:40;;;;;;;35.75;15.85;;;7.00;93.30;;;;;;5083481;28;20067;-80
2024/03/09 05:42:05;;;;;;;36.05;16.75;;;7.00;93.30;;;;;;5071445;28;20071;-80
2024/03/09 05:44:32;;;;;;;29.13;13.45;;;7.00;93.40;;;;;;5083399;28;20065;-79
2024/03/09 05:47:01;;;;;;;39.05;17.15;;;7.00;93.30;;;;;;5071079;28;20028;-79
2024/03/09 05:49:27;;;;;;;26.95;10.63;;;6.90;93.40;;;;;;5070855;28;20369;-80
2024/03/09 05:51:54;;;;;;;33.75;15.18;;;6.90;93.40;;;;;;5071562;28;20052;-80
2024/03/09 05:54:20;;;;;;;36.80;16.63;;;7.00;93.30;;;;;;5084402;28;20044;-80
2024/03/09 05:56:46;;;;;;;33.78;14.77;;;6.90;93.40;;;;;;5084258;28;20058;-80
2024/03/09 05:59:11;;;;;;;36.50;15.48;;;6.90;93.40;;;;;;5070422;28;20020;-81
2024/03/09 06:01:37;;;;;;;35.70;16.45;;;6.90;93.40;;;;;;5087119;28;20032;-80
2024/03/09 06:04:03;;;;;;;34.47;15.35;;;6.90;93.40;;;;;;5080396;28;20031;-80
2024/03/09 06:06:29;;;;;;;21.73;8.30;;;6.90;93.40;;;;;;5085325;28;20043;-80
2024/03/09 06:08:55;;;;;;;29.70;14.60;;;6.90;93.50;;;;;;5085472;28;20028;-80
2024/03/09 06:11:21;;;;;;;34.42;16.92;;;6.90;93.30;;;;;;5085629;28;20044;-79
2024/03/09 06:13:48;;;;;;;31.90;14.52;;;6.90;93.70;;;;;;5077586;28;20127;-79
2024/03/09 06:16:17;;;;;;;33.88;15.55;;;6.80;93.40;;;;;;5072580;28;20029;-80
2024/03/09 06:18:47;;;;;;;37.60;18.02;;;6.80;93.40;;;;;;5078770;28;20089;-80
2024/03/09 06:21:14;;;;;;;41.00;16.05;;;6.80;93.60;;;;;;5078504;28;20040;-80
2024/03/09 06:23:39;;;;;;;22.80;10.82;;;6.80;93.60;;;;;;5069352;28;20041;-79
2024/03/09 06:26:05;;;;;;;35.72;16.80;;;6.80;93.60;;;;;;5087290;28;20084;-80
2024/03/09 06:28:30;;;;;;;31.92;16.08;;;6.80;93.50;;;;;;5080238;28;20037;-80
2024/03/09 06:30:58;;;;;;;36.30;17.80;;;6.80;93.50;;;;;;5077666;28;20043;-80
2024/03/09 06:33:24;;;;;;;30.52;14.02;;;6.80;93.60;;;;;;5079263;28;20036;-83
2024/03/09 06:35:56;;;;;;;29.27;15.02;;;6.70;93.50;;;;;;5075518;28;20464;-83
2024/03/09 06:38:21;;;;;;;37.65;17.15;;;6.70;93.70;;;;;;5083811;28;20039;-80
2024/03/09 06:40:47;;;;;;;36.42;17.38;;;6.70;93.60;;;;;;5074091;28;20017;-82
2024/03/09 06:43:13;;;;;;;36.33;16.95;;;6.70;93.60;;;;;;5087376;28;20111;-80
2024/03/09 06:45:40;;;;;;;37.83;16.90;;;6.70;93.70;;;;;;5077566;28;20024;-83
2024/03/09 06:48:07;;;;;;;32.50;15.30;;;6.70;93.70;;;;;;5086616;28;20074;-81
2024/03/09 06:50:35;;;;;;;33.65;15.07;;;6.60;93.80;;;;;;5081610;28;20032;-78
2024/03/09 06:53:01;;;;;;;19.40;9.15;;;6.70;93.90;;;;;;5085894;28;20094;-78
2024/03/09 06:55:29;;;;;;;11.57;6.20;;;6.60;93.90;;;;;;5072330;28;20488;-78
2024/03/09 06:58:01;;;;;;;16.63;7.75;;;6.60;93.80;;;;;;5069404;28;20055;-78
2024/03/09 07:00:34;;;;;;;29.55;13.48;;;6.60;94.20;;;;;;5086428;28;20048;-77
2024/03/09 07:02:59;;;;;;;23.00;9.70;;;6.60;94.00;;;;;;5083830;28;20024;-78
2024/03/09 07:05:30;;;;;;;27.83;12.30;;;6.60;94.10;;;;;;5073660;28;20044;-78
2024/03/09 07:07:59;;;;;;;15.90;8.40;;;6.50;94.10;;;;;;5069305;28;20081;-78
2024/03/09 07:10:27;;;;;;;18.60;9.20;;;6.60;94.20;;;;;;5085169;28;20028;-79
2024/03/09 07:12:53;;;;;;;34.85;15.60;;;6.60;94.10;;;;;;5082359;28;20505;-79
2024/03/09 07:15:21;;;;;;;38.08;17.60;;;6.60;94.10;;;;;;5072489;28;20435;-78
2024/03/09 07:17:48;;;;;;;12.32;6.57;;;6.60;94.10;;;;;;5068222;28;20036;-80
2024/03/09 07:20:16;;;;;;;20.35;7.18;;;6.70;94.10;;;;;;5080060;28;20024;-79
2024/03/09 07:22:49;;;;;;;26.42;13.13;;;6.70;94.00;;;;;;5071439;28;20526;-78
2024/03/09 07:25:23;;;;;;;19.05;10.60;;;6.60;94.20;;;;;;5077893;28;20475;-78
2024/03/09 07:27:49;;;;;;;33.45;16.65;;;6.60;94.30;;;;;;5075139;28;20028;-78
2024/03/09 07:30:16;;;;;;;22.02;10.30;;;6.60;94.40;;;;;;5086786;28;20043;-77
2024/03/09 07:32:49;;;;;;;33.80;16.15;;;6.60;94.40;;;;;;5071718;28;20484;-78
2024/03/09 07:35:18;;;;;;;34.42;16.75;;;6.50;94.40;;;;;;5070006;28;20078;-78
2024/03/09 07:37:52;;;;;;;22.40;10.75;;;6.60;94.60;;;;;;5084213;28;20052;-80
2024/03/09 07:40:22;;;;;;;27.08;13.15;;;6.60;94.60;;;;;;5068822;28;20033;-78
2024/03/09 07:42:48;;;;;;;26.50;11.65;;;6.60;94.60;;;;;;5081991;28;20502;-80
2024/03/09 07:45:15;;;;;;;16.30;7.78;;;6.60;94.70;;;;;;5069805;28;20035;-78
2024/03/09 07:47:43;;;;;;;36.58;16.73;;;6.50;94.70;;;;;;5069248;28;20036;-79
2024/03/09 07:50:15;;;;;;;23.70;10.77;;;6.50;94.90;;;;;;5088541;28;20487;-78
2024/03/09 07:52:48;;;;;;;15.82;8.38;;;6.60;94.80;;;;;;5074057;28;20098;-78
2024/03/09 07:55:20;;;;;;;18.63;9.40;;;6.50;94.80;;;;;;5088028;28;20028;-78
2024/03/09 07:57:49;;;;;;;30.70;14.90;;;6.40;95.00;;;;;;5085009;28;20488;-78
2024/03/09 08:00:19;;;;;;;41.10;17.75;;;6.50;95.30;;;;;;5080237;28;20036;-78
2024/03/09 08:02:48;;;;;;;40.72;17.60;;;6.50;95.30;;;;;;5070596;28;20032;-78
2024/03/09 08:05:19;;;;;;;29.90;14.30;;;6.60;95.10;;;;;;5082225;28;20195;-78
2024/03/09 08:07:48;;;;;;;26.10;13.27;;;6.70;95.10;;;;;;5073818;28;20624;-78
2024/03/09 08:10:19;;;;;;;20.95;9.52;;;6.60;95.00;;;;;;5072416;28;20028;-78
2024/03/09 08:12:45;;;;;;;25.20;10.77;;;6.50;95.30;;;;;;5073066;28;20533;-78
2024/03/09 08:15:12;;;;;;;21.88;10.80;;;6.50;95.50;;;;;;5067729;28;20762;-78
2024/03/09 08:17:38;;;;;;;38.40;18.92;;;6.60;95.60;;;;;;5074338;28;20093;-79
2024/03/09 08:20:06;;;;;;;34.78;13.85;;;6.70;95.50;;;;;;5069111;28;20357;-77
2024/03/09 08:22:40;;;;;;;19.40;10.10;;;6.70;95.50;;;;;;5068807;28;20024;-78
2024/03/09 08:25:06;;;;;;;28.65;15.57;;;6.70;95.50;;;;;;5084149;28;20040;-78
2024/03/09 08:27:39;;;;;;;18.40;7.63;;;6.70;95.40;;;;;;5081157;28;20151;-77
2024/03/09 08:30:14;;;;;;;22.20;9.95;;;6.70;95.50;;;;;;5069034;28;20500;-77
2024/03/09 08:32:47;;;;;;;14.25;6.50;;;6.70;95.60;;;;;;5081620;28;20047;-78
2024/03/09 08:35:16;;;;;;;16.63;8.70;;;6.70;95.60;;;;;;5076212;28;20032;-77
2024/03/09 08:37:43;;;;;;;18.73;8.43;;;6.80;95.80;;;;;;5071232;28;20042;-78
2024/03/09 08:40:10;;;;;;;31.27;15.13;;;6.70;95.60;;;;;;5084498;28;20495;-79
2024/03/09 08:42:36;;;;;;;30.70;14.02;;;6.80;95.60;;;;;;5071198;28;20040;-80
2024/03/09 08:45:06;;;;;;;11.05;5.60;;;7.00;95.50;;;;;;5072191;28;20468;-72
2024/03/09 08:47:32;;;;;;;31.42;13.02;;;7.00;95.40;;;;;;5067819;28;20029;-75
2024/03/09 08:49:58;;;;;;;21.23;9.52;;;6.90;95.40;;;;;;5067676;28;20487;-76
2024/03/09 08:52:24;;;;;;;22.48;10.80;;;7.00;95.50;;;;;;5083257;28;20071;-79
2024/03/09 08:54:51;;;;;;;31.05;15.25;;;7.00;95.60;;;;;;5073423;28;20127;-81
2024/03/09 08:57:19;;;;;;;38.55;16.98;;;7.00;95.60;;;;;;5064971;28;20793;-81
2024/03/09 08:59:45;;;;;;;32.45;14.25;;;7.10;95.70;;;;;;5067768;28;20035;-79
2024/03/09 09:02:10;;;;;;;35.63;16.90;;;7.10;95.60;;;;;;5067849;28;20025;-78
2024/03/09 09:04:36;;;;;;;41.92;17.00;;;7.10;95.60;;;;;;5072893;28;20771;-83
2024/03/09 09:07:06;;;;;;;31.70;14.50;;;7.20;95.60;;;;;;5069417;28;20024;-78
2024/03/09 09:09:31;;;;;;;16.20;7.63;;;7.20;95.60;;;;;;5071706;28;20033;-79
2024/03/09 09:11:59;;;;;;;29.30;13.95;;;7.20;95.70;;;;;;5071102;28;20043;-79
2024/03/09 09:14:26;;;;;;;32.28;15.52;;;7.20;95.70;;;;;;5079660;28;20032;-78
2024/03/09 09:16:53;;;;;;;30.38;16.58;;;7.20;95.70;;;;;;5074005;28;20547;-79
2024/03/09 09:19:20;;;;;;;20.67;11.10;;;7.20;95.70;;;;;;5085910;28;20106;-79
2024/03/09 09:21:46;;;;;;;35.15;16.58;;;7.20;95.60;;;;;;5080807;28;20043;-78
2024/03/09 09:24:12;;;;;;;26.70;11.57;;;7.30;95.80;;;;;;5074401;28;20024;-79
2024/03/09 09:26:37;;;;;;;16.33;6.28;;;7.40;95.60;;;;;;5083034;28;20046;-78
2024/03/09 09:29:03;;;;;;;34.05;15.50;;;7.40;95.60;;;;;;5074190;28;20031;-79
2024/03/09 09:31:33;;;;;;;24.00;12.93;;;7.30;95.70;;;;;;5072227;28;21437;-79
2024/03/09 09:33:59;;;;;;;23.58;12.60;;;7.20;95.90;;;;;;5068189;28;20032;-79
2024/03/09 09:36:26;;;;;;;22.77;11.50;;;7.20;96.00;;;;;;5080908;28;20020;-79
2024/03/09 09:38:52;;;;;;;20.00;8.13;;;7.30;95.90;;;;;;5075164;28;20105;-79
2024/03/09 09:41:18;;;;;;;35.72;16.65;;;7.40;95.80;;;;;;5078887;28;20032;-79
2024/03/09 09:43:47;;;;;;;23.23;10.82;;;7.50;95.80;;;;;;5068926;28;20472;-79
2024/03/09 09:46:13;;;;;;;19.08;9.13;;;7.50;95.80;;;;;;5070350;28;20089;-79
2024/03/09 09:48:39;;;;;;;24.58;13.18;;;7.50;95.80;;;;;;5080646;28;20068;-79
2024/03/09 09:51:06;;;;;;;33.15;15.23;;;7.50;95.70;;;;;;5079904;28;20067;-79
2024/03/09 09:53:32;;;;;;;43.08;20.77;;;7.60;95.80;;;;;;5072843;28;20040;-79
2024/03/09 09:55:59;;;;;;;25.55;11.68;;;7.80;95.80;;;;;;5077008;28;20025;-79
2024/03/09 09:58:25;;;;;;;31.48;16.05;;;7.70;95.60;;;;;;5081142;28;20040;-78
2024/03/09 10:00:57;;;;;;;23.27;10.85;;;7.70;95.60;;;;;;5075943;28;20038;-79
2024/03/09 10:03:23;;;;;;;37.42;17.50;;;7.80;95.50;;;;;;5074034;28;20054;-79
2024/03/09 10:05:49;;;;;;;34.30;16.58;;;7.70;95.70;;;;;;5079030;28;20093;-78
2024/03/09 10:08:15;;;;;;;24.48;11.60;;;7.80;95.70;;;;;;5075261;28;20468;-78
2024/03/09 10:10:43;;;;;;;23.95;12.63;;;7.90;95.70;;;;;;5085466;28;20130;-79
2024/03/09 10:13:13;;;;;;;44.75;15.38;;;7.90;95.60;;;;;;5084493;28;20052;-80
2024/03/09 10:15:40;;;;;;;29.90;12.80;;;8.00;95.50;;;;;;5077599;28;20032;-78
2024/03/09 10:18:10;;;;;;;34.28;15.65;;;8.00;95.50;;;;;;5081663;28;20024;-77
2024/03/09 10:20:37;;;;;;;27.20;12.57;;;8.00;95.50;;;;;;5077629;28;20032;-78
2024/03/09 10:23:04;;;;;;;29.58;13.75;;;7.90;95.60;;;;;;5074144;28;20044;-78
2024/03/09 10:25:37;;;;;;;28.00;13.27;;;8.00;95.70;;;;;;5081266;28;20604;-79
2024/03/09 10:28:05;;;;;;;25.23;13.20;;;8.00;95.70;;;;;;5087481;28;20506;-80
2024/03/09 10:30:31;;;;;;;33.70;16.35;;;8.00;95.70;;;;;;5079681;28;20082;-81
2024/03/09 10:32:58;;;;;;;25.25;11.35;;;8.00;95.70;;;;;;5087319;28;20044;-80
2024/03/09 10:35:25;;;;;;;31.65;15.15;;;8.10;95.60;;;;;;5079768;28;20498;-84
2024/03/09 10:37:55;;;;;;;30.50;16.67;;;8.00;95.80;;;;;;5077768;28;20036;-82
2024/03/09 10:40:25;;;;;;;34.05;15.75;;;8.10;95.70;;;;;;5073407;28;20039;-79
2024/03/09 10:42:52;;;;;;;26.33;14.60;;;8.20;95.70;;;;;;5074652;28;20033;-79
2024/03/09 10:45:22;;;;;;;22.38;10.20;;;8.20;95.50;;;;;;5089981;28;20031;-80
2024/03/09 10:47:53;;;;;;;28.95;13.88;;;8.30;95.70;;;;;;5087514;28;20114;-80
2024/03/09 10:50:28;;;;;;;28.33;14.63;;;8.40;95.50;;;;;;5080052;28;20036;-81
2024/03/09 10:53:09;;;;;;;35.92;16.15;;;8.30;95.70;;;;;;5081433;28;20070;-80
2024/03/09 10:56:04;;;;;;;20.63;9.20;;;8.40;95.60;;;;;;5080214;28;20374;-80
2024/03/09 10:58:32;;;;;;;30.38;15.23;;;8.50;95.40;;;;;;5087418;28;20452;-80
2024/03/09 11:00:59;;;;;;;27.02;13.25;;;8.50;95.50;;;;;;5085353;28;20050;-80
2024/03/09 11:03:26;;;;;;;19.02;8.15;;;8.50;95.60;;;;;;5083701;28;20177;-80
2024/03/09 11:05:53;;;;;;;24.67;12.85;;;8.40;95.70;;;;;;5077501;28;20035;-80
2024/03/09 11:08:20;;;;;;;16.30;8.50;;;8.40;95.70;;;;;;5077276;28;20755;-80
2024/03/09 11:10:46;;;;;;;37.83;17.20;;;8.40;95.60;;;;;;5084329;28;20035;-81
2024/03/09 11:13:19;;;;;;;31.73;15.27;;;8.50;95.60;;;;;;5072815;28;20468;-81
2024/03/09 11:15:52;;;;;;;26.88;14.05;;;8.60;95.60;;;;;;5077043;28;20043;-79
2024/03/09 11:18:21;;;;;;;28.58;15.27;;;8.60;95.60;;;;;;5081055;28;20488;-83
2024/03/09 11:21:02;;;;;;;26.13;11.48;;;8.70;95.50;;;;;;5078105;28;20031;-84
2024/03/09 11:23:32;;;;;;;30.67;16.60;;;8.70;95.80;;;;;;5073616;28;20043;-82
2024/03/09 11:26:00;;;;;;;25.30;12.30;;;8.80;95.50;;;;;;5076519;28;20031;-78
2024/03/09 11:28:41;;;;;;;29.17;13.38;;;8.70;95.40;;;;;;5087011;28;20070;-79
2024/03/09 11:31:11;;;;;;;25.95;11.75;;;8.80;95.50;;;;;;5080419;28;20074;-78
2024/03/09 11:33:48;;;;;;;25.60;11.85;;;8.90;95.40;;;;;;5083692;28;20024;-80
2024/03/09 11:36:39;;;;;;;22.88;10.00;;;8.90;95.40;;;;;;5083998;28;20040;-79
2024/03/09 11:39:06;;;;;;;23.30;11.18;;;9.00;95.30;;;;;;5078521;28;20036;-80
2024/03/09 11:41:35;;;;;;;20.70;9.45;;;9.10;95.30;;;;;;5083835;28;20040;-81
2024/03/09 11:44:04;;;;;;;22.67;10.52;;;9.00;95.20;;;;;;5096727;28;20029;-84
2024/03/09 11:46:34;;;;;;;33.30;14.70;;;9.00;95.30;;;;;;5090183;28;20066;-80
2024/03/09 11:49:03;;;;;;;23.63;9.52;;;9.10;95.30;;;;;;5079744;28;20547;-81
2024/03/09 11:51:35;;;;;;;21.17;11.32;;;9.10;95.60;;;;;;5079493;28;20048;-81
2024/03/09 11:54:06;;;;;;;23.58;10.95;;;9.10;95.20;;;;;;5082321;28;20068;-79
2024/03/09 11:56:33;;;;;;;23.88;11.77;;;9.10;95.30;;;;;;5082166;28;20032;-80
2024/03/09 11:58:59;;;;;;;32.47;15.45;;;9.20;95.40;;;;;;5072246;28;20032;-82
2024/03/09 12:01:25;;;;;;;30.42;13.98;;;9.30;95.30;;;;;;5077334;28;20037;-82
2024/03/09 12:03:59;;;;;;;28.58;14.15;;;9.30;95.20;;;;;;5075937;28;20017;-81
2024/03/09 12:06:26;;;;;;;;;;;9.40;95.00;;;;;;5080186;28;20044;-81
2024/03/09 12:08:53;;;;;;;26.15;13.10;;;9.40;94.90;;;;;;5076721;28;19954;-82
2024/03/09 12:11:23;;;;;;;32.28;16.27;;;9.50;94.90;;;;;;5086615;28;20028;-80
2024/03/09 12:13:52;;;;;;;22.08;10.15;;;9.60;94.80;;;;;;5086462;28;20024;-84
2024/03/09 12:16:19;;;;;;;28.17;13.95;;;9.60;94.60;;;;;;5084099;28;20036;-81
2024/03/09 12:18:47;;;;;;;30.02;14.10;;;9.50;94.80;;;;;;5079483;28;20483;-81
2024/03/09 12:21:14;;;;;;;18.45;8.65;;;9.50;94.80;;;;;;5070306;28;20041;-81
2024/03/09 12:23:40;;;;;;;29.80;15.13;;;9.50;94.50;;;;;;5077900;28;20118;-82
2024/03/09 12:26:09;;;;;;;26.48;12.00;;;9.50;94.60;;;;;;5081223;28;20043;-82
2024/03/09 12:28:35;;;;;;;23.70;11.93;;;9.60;94.60;;;;;;5067691;22;20444;-84
2024/03/09 12:31:01;;;;;;;15.15;6.57;;;9.70;94.50;;;;;;5051126;28;20427;-81
2024/03/09 12:33:27;;;;;;;24.67;12.48;;;9.70;94.40;;;;;;5058194;28;20040;-79
2024/03/09 12:35:59;;;;;;;18.77;10.02;;;9.70;94.40;;;;;;5054383;28;20099;-80
2024/03/09 12:38:25;;;;;;;15.25;7.85;;;9.60;94.40;;;;;;5054676;28;20060;-82
2024/03/09 12:40:54;;;;;;;21.90;12.15;;;9.70;94.50;;;;;;5059645;28;20507;-80
2024/03/09 12:43:23;;;;;;;28.63;14.70;;;9.70;94.40;;;;;;5059834;28;20047;-82